sensor_id;sensor_type;location;lat;lon;timestamp;P1;durP1;ratioP1;P2;durP2;ratioP2
3333;SDS011;1679;50.392;8.008;2023-11-18T00:02:25;208.43;;;29.43;;
3333;SDS011;1679;50.392;8.008;2023-11-18T00:04:51;126.40;;;28.87;;
3333;SDS011;1679;50.392;8.008;2023-11-18T00:07:16;229.83;;;29.83;;
3333;SDS011;1679;50.392;8.008;2023-11-18T00:09:42;231.77;;;28.37;;
3333;SDS011;1679;50.392;8.008;2023-11-18T00:12:12;94.97;;;20.67;;
3333;SDS011;1679;50.392;8.008;2023-11-18T00:14:38;90.37;;;21.07;;
3333;SDS011;1679;50.392;8.008;2023-11-18T00:17:05;53.90;;;19.00;;
3333;SDS011;1679;50.392;8.008;2023-11-18T00:19:31;97.83;;;20.67;;
3333;SDS011;1679;50.392;8.008;2023-11-18T00:21:59;70.83;;;20.57;;
3333;SDS011;1679;50.392;8.008;2023-11-18T00:24:27;85.57;;;20.53;;
3333;SDS011;1679;50.392;8.008;2023-11-18T00:26:54;109.23;;;21.23;;
3333;SDS011;1679;50.392;8.008;2023-11-18T00:29:20;72.73;;;18.90;;
3333;SDS011;1679;50.392;8.008;2023-11-18T00:31:45;73.80;;;19.47;;
3333;SDS011;1679;50.392;8.008;2023-11-18T00:34:11;96.90;;;21.17;;
3333;SDS011;1679;50.392;8.008;2023-11-18T00:36:36;113.27;;;22.50;;
3333;SDS011;1679;50.392;8.008;2023-11-18T00:39:02;57.20;;;18.73;;
3333;SDS011;1679;50.392;8.008;2023-11-18T00:41:29;139.97;;;22.20;;
3333;SDS011;1679;50.392;8.008;2023-11-18T00:43:54;125.77;;;19.90;;
3333;SDS011;1679;50.392;8.008;2023-11-18T00:46:21;146.93;;;21.93;;
3333;SDS011;1679;50.392;8.008;2023-11-18T00:48:48;255.73;;;28.00;;
3333;SDS011;1679;50.392;8.008;2023-11-18T00:51:13;190.90;;;23.17;;
3333;SDS011;1679;50.392;8.008;2023-11-18T00:53:39;95.50;;;19.70;;
3333;SDS011;1679;50.392;8.008;2023-11-18T00:56:04;65.27;;;18.17;;
3333;SDS011;1679;50.392;8.008;2023-11-18T00:58:33;105.57;;;21.03;;
3333;SDS011;1679;50.392;8.008;2023-11-18T01:01:04;193.27;;;24.33;;
3333;SDS011;1679;50.392;8.008;2023-11-18T01:03:32;122.63;;;21.90;;
3333;SDS011;1679;50.392;8.008;2023-11-18T01:05:59;144.27;;;23.10;;
3333;SDS011;1679;50.392;8.008;2023-11-18T01:08:25;186.47;;;25.40;;
3333;SDS011;1679;50.392;8.008;2023-11-18T01:10:51;188.43;;;24.93;;
3333;SDS011;1679;50.392;8.008;2023-11-18T01:13:16;170.00;;;23.30;;
3333;SDS011;1679;50.392;8.008;2023-11-18T01:15:42;72.10;;;16.60;;
3333;SDS011;1679;50.392;8.008;2023-11-18T01:18:07;62.57;;;16.97;;
3333;SDS011;1679;50.392;8.008;2023-11-18T01:20:34;245.33;;;24.43;;
3333;SDS011;1679;50.392;8.008;2023-11-18T01:23:01;90.60;;;17.97;;
3333;SDS011;1679;50.392;8.008;2023-11-18T01:25:27;57.07;;;15.53;;
3333;SDS011;1679;50.392;8.008;2023-11-18T01:27:52;56.43;;;17.07;;
3333;SDS011;1679;50.392;8.008;2023-11-18T01:30:19;157.90;;;22.47;;
3333;SDS011;1679;50.392;8.008;2023-11-18T01:32:44;75.33;;;18.57;;
3333;SDS011;1679;50.392;8.008;2023-11-18T01:35:12;89.77;;;18.53;;
3333;SDS011;1679;50.392;8.008;2023-11-18T01:37:38;189.70;;;24.17;;
3333;SDS011;1679;50.392;8.008;2023-11-18T01:40:04;74.33;;;18.80;;
3333;SDS011;1679;50.392;8.008;2023-11-18T01:42:31;87.27;;;17.17;;
3333;SDS011;1679;50.392;8.008;2023-11-18T01:44:57;140.40;;;20.13;;
3333;SDS011;1679;50.392;8.008;2023-11-18T01:47:24;121.60;;;20.10;;
3333;SDS011;1679;50.392;8.008;2023-11-18T01:49:52;140.00;;;19.73;;
3333;SDS011;1679;50.392;8.008;2023-11-18T01:52:20;68.13;;;15.03;;
3333;SDS011;1679;50.392;8.008;2023-11-18T01:54:47;128.77;;;20.73;;
3333;SDS011;1679;50.392;8.008;2023-11-18T01:57:13;101.13;;;17.70;;
3333;SDS011;1679;50.392;8.008;2023-11-18T01:59:41;111.20;;;19.57;;
3333;SDS011;1679;50.392;8.008;2023-11-18T02:02:08;161.13;;;20.00;;
3333;SDS011;1679;50.392;8.008;2023-11-18T02:04:34;186.27;;;21.63;;
3333;SDS011;1679;50.392;8.008;2023-11-18T02:06:59;199.43;;;24.30;;
3333;SDS011;1679;50.392;8.008;2023-11-18T02:09:28;84.87;;;20.00;;
3333;SDS011;1679;50.392;8.008;2023-11-18T02:11:57;61.77;;;16.07;;
3333;SDS011;1679;50.392;8.008;2023-11-18T02:14:34;101.10;;;19.20;;
3333;SDS011;1679;50.392;8.008;2023-11-18T02:17:04;119.33;;;18.10;;
3333;SDS011;1679;50.392;8.008;2023-11-18T02:19:34;149.83;;;18.13;;
3333;SDS011;1679;50.392;8.008;2023-11-18T02:22:00;136.67;;;19.20;;
3333;SDS011;1679;50.392;8.008;2023-11-18T02:24:30;175.03;;;21.27;;
3333;SDS011;1679;50.392;8.008;2023-11-18T02:27:01;104.90;;;18.53;;
3333;SDS011;1679;50.392;8.008;2023-11-18T02:29:28;64.10;;;16.27;;
3333;SDS011;1679;50.392;8.008;2023-11-18T02:32:03;129.43;;;19.23;;
3333;SDS011;1679;50.392;8.008;2023-11-18T02:37:44;49.90;;;17.20;;
3333;SDS011;1679;50.392;8.008;2023-11-18T02:40:12;68.30;;;16.47;;
3333;SDS011;1679;50.392;8.008;2023-11-18T02:42:46;98.80;;;17.17;;
3333;SDS011;1679;50.392;8.008;2023-11-18T02:45:13;50.43;;;17.27;;
3333;SDS011;1679;50.392;8.008;2023-11-18T02:47:43;48.60;;;15.47;;
3333;SDS011;1679;50.392;8.008;2023-11-18T02:50:10;55.57;;;16.60;;
3333;SDS011;1679;50.392;8.008;2023-11-18T02:52:38;59.47;;;17.33;;
3333;SDS011;1679;50.392;8.008;2023-11-18T02:55:07;91.87;;;18.10;;
3333;SDS011;1679;50.392;8.008;2023-11-18T02:57:37;85.43;;;16.80;;
3333;SDS011;1679;50.392;8.008;2023-11-18T03:00:04;78.37;;;17.97;;
3333;SDS011;1679;50.392;8.008;2023-11-18T03:02:36;58.93;;;15.53;;
3333;SDS011;1679;50.392;8.008;2023-11-18T03:05:04;50.13;;;15.00;;
3333;SDS011;1679;50.392;8.008;2023-11-18T03:07:37;43.57;;;13.70;;
3333;SDS011;1679;50.392;8.008;2023-11-18T03:10:03;181.77;;;19.53;;
3333;SDS011;1679;50.392;8.008;2023-11-18T03:12:35;217.77;;;24.73;;
3333;SDS011;1679;50.392;8.008;2023-11-18T03:15:01;102.27;;;18.67;;
3333;SDS011;1679;50.392;8.008;2023-11-18T03:17:27;134.10;;;17.33;;
3333;SDS011;1679;50.392;8.008;2023-11-18T03:19:54;187.20;;;19.70;;
3333;SDS011;1679;50.392;8.008;2023-11-18T03:22:19;122.63;;;18.30;;
3333;SDS011;1679;50.392;8.008;2023-11-18T03:24:45;40.93;;;13.33;;
3333;SDS011;1679;50.392;8.008;2023-11-18T03:27:11;105.00;;;19.40;;
3333;SDS011;1679;50.392;8.008;2023-11-18T03:29:37;76.77;;;16.53;;
3333;SDS011;1679;50.392;8.008;2023-11-18T03:32:03;86.73;;;18.63;;
3333;SDS011;1679;50.392;8.008;2023-11-18T03:34:30;94.83;;;16.07;;
3333;SDS011;1679;50.392;8.008;2023-11-18T03:36:56;155.57;;;20.73;;
3333;SDS011;1679;50.392;8.008;2023-11-18T03:39:22;167.00;;;20.57;;
3333;SDS011;1679;50.392;8.008;2023-11-18T03:41:48;98.87;;;17.00;;
3333;SDS011;1679;50.392;8.008;2023-11-18T03:44:14;93.57;;;16.10;;
3333;SDS011;1679;50.392;8.008;2023-11-18T03:46:40;84.93;;;14.70;;
3333;SDS011;1679;50.392;8.008;2023-11-18T03:49:07;234.17;;;24.43;;
3333;SDS011;1679;50.392;8.008;2023-11-18T03:51:33;141.07;;;20.80;;
3333;SDS011;1679;50.392;8.008;2023-11-18T03:53:59;56.07;;;16.03;;
3333;SDS011;1679;50.392;8.008;2023-11-18T03:56:24;124.43;;;19.70;;
3333;SDS011;1679;50.392;8.008;2023-11-18T03:58:51;245.00;;;22.77;;
3333;SDS011;1679;50.392;8.008;2023-11-18T04:01:23;188.23;;;20.90;;
3333;SDS011;1679;50.392;8.008;2023-11-18T04:03:56;60.10;;;15.00;;
3333;SDS011;1679;50.392;8.008;2023-11-18T04:06:22;86.60;;;17.03;;
3333;SDS011;1679;50.392;8.008;2023-11-18T04:08:49;41.17;;;15.03;;
3333;SDS011;1679;50.392;8.008;2023-11-18T04:11:15;118.93;;;18.77;;
3333;SDS011;1679;50.392;8.008;2023-11-18T04:13:40;101.40;;;17.33;;
3333;SDS011;1679;50.392;8.008;2023-11-18T04:16:10;38.80;;;14.37;;
3333;SDS011;1679;50.392;8.008;2023-11-18T04:18:44;69.93;;;14.80;;
3333;SDS011;1679;50.392;8.008;2023-11-18T04:21:10;159.50;;;17.73;;
3333;SDS011;1679;50.392;8.008;2023-11-18T04:23:38;47.80;;;13.77;;
3333;SDS011;1679;50.392;8.008;2023-11-18T04:26:04;54.03;;;15.50;;
3333;SDS011;1679;50.392;8.008;2023-11-18T04:28:30;159.17;;;18.53;;
3333;SDS011;1679;50.392;8.008;2023-11-18T04:30:56;58.20;;;16.20;;
3333;SDS011;1679;50.392;8.008;2023-11-18T04:33:22;99.40;;;16.97;;
3333;SDS011;1679;50.392;8.008;2023-11-18T04:35:49;26.37;;;12.67;;
3333;SDS011;1679;50.392;8.008;2023-11-18T04:38:16;60.73;;;16.83;;
3333;SDS011;1679;50.392;8.008;2023-11-18T04:40:41;78.70;;;13.83;;
3333;SDS011;1679;50.392;8.008;2023-11-18T04:43:11;108.07;;;17.40;;
3333;SDS011;1679;50.392;8.008;2023-11-18T04:45:37;54.23;;;14.83;;
3333;SDS011;1679;50.392;8.008;2023-11-18T04:48:03;37.90;;;13.73;;
3333;SDS011;1679;50.392;8.008;2023-11-18T04:50:29;43.43;;;12.93;;
3333;SDS011;1679;50.392;8.008;2023-11-18T04:52:55;67.47;;;16.17;;
3333;SDS011;1679;50.392;8.008;2023-11-18T04:55:21;62.47;;;14.40;;
3333;SDS011;1679;50.392;8.008;2023-11-18T04:57:47;50.97;;;13.30;;
3333;SDS011;1679;50.392;8.008;2023-11-18T05:00:13;59.53;;;13.03;;
3333;SDS011;1679;50.392;8.008;2023-11-18T05:02:42;124.43;;;16.60;;
3333;SDS011;1679;50.392;8.008;2023-11-18T05:05:12;134.77;;;17.93;;
3333;SDS011;1679;50.392;8.008;2023-11-18T05:07:39;41.80;;;13.57;;
3333;SDS011;1679;50.392;8.008;2023-11-18T05:10:05;110.87;;;16.67;;
3333;SDS011;1679;50.392;8.008;2023-11-18T05:12:33;35.23;;;13.07;;
3333;SDS011;1679;50.392;8.008;2023-11-18T05:14:59;202.17;;;21.40;;
3333;SDS011;1679;50.392;8.008;2023-11-18T05:17:25;65.80;;;12.60;;
3333;SDS011;1679;50.392;8.008;2023-11-18T05:19:51;69.07;;;14.17;;
3333;SDS011;1679;50.392;8.008;2023-11-18T05:22:18;40.30;;;12.63;;
3333;SDS011;1679;50.392;8.008;2023-11-18T05:24:45;31.67;;;12.03;;
3333;SDS011;1679;50.392;8.008;2023-11-18T05:27:11;51.30;;;12.80;;
3333;SDS011;1679;50.392;8.008;2023-11-18T05:29:36;120.53;;;18.23;;
3333;SDS011;1679;50.392;8.008;2023-11-18T05:32:02;45.00;;;14.70;;
3333;SDS011;1679;50.392;8.008;2023-11-18T05:34:29;82.23;;;15.23;;
3333;SDS011;1679;50.392;8.008;2023-11-18T05:36:54;49.50;;;13.40;;
3333;SDS011;1679;50.392;8.008;2023-11-18T05:39:20;30.70;;;12.33;;
3333;SDS011;1679;50.392;8.008;2023-11-18T05:41:50;44.70;;;13.63;;
3333;SDS011;1679;50.392;8.008;2023-11-18T05:44:16;68.27;;;17.07;;
3333;SDS011;1679;50.392;8.008;2023-11-18T05:46:44;62.67;;;15.07;;
3333;SDS011;1679;50.392;8.008;2023-11-18T05:49:13;33.70;;;13.10;;
3333;SDS011;1679;50.392;8.008;2023-11-18T05:51:38;66.07;;;13.70;;
3333;SDS011;1679;50.392;8.008;2023-11-18T05:54:07;35.57;;;13.37;;
3333;SDS011;1679;50.392;8.008;2023-11-18T05:56:33;39.30;;;12.33;;
3333;SDS011;1679;50.392;8.008;2023-11-18T05:58:59;41.40;;;14.37;;
3333;SDS011;1679;50.392;8.008;2023-11-18T06:01:28;50.87;;;13.37;;
3333;SDS011;1679;50.392;8.008;2023-11-18T06:03:54;76.13;;;14.00;;
3333;SDS011;1679;50.392;8.008;2023-11-18T06:06:22;53.17;;;14.00;;
3333;SDS011;1679;50.392;8.008;2023-11-18T06:08:49;60.97;;;14.87;;
3333;SDS011;1679;50.392;8.008;2023-11-18T06:11:15;154.90;;;17.87;;
3333;SDS011;1679;50.392;8.008;2023-11-18T06:16:08;57.57;;;14.13;;
3333;SDS011;1679;50.392;8.008;2023-11-18T06:18:39;42.40;;;13.20;;
3333;SDS011;1679;50.392;8.008;2023-11-18T06:21:10;99.90;;;15.77;;
3333;SDS011;1679;50.392;8.008;2023-11-18T06:23:37;88.30;;;14.03;;
3333;SDS011;1679;50.392;8.008;2023-11-18T06:26:02;132.73;;;16.60;;
3333;SDS011;1679;50.392;8.008;2023-11-18T06:28:32;108.67;;;17.53;;
3333;SDS011;1679;50.392;8.008;2023-11-18T06:30:59;36.97;;;11.90;;
3333;SDS011;1679;50.392;8.008;2023-11-18T06:33:25;54.20;;;14.10;;
3333;SDS011;1679;50.392;8.008;2023-11-18T06:35:55;59.10;;;14.13;;
3333;SDS011;1679;50.392;8.008;2023-11-18T06:38:22;44.37;;;13.07;;
3333;SDS011;1679;50.392;8.008;2023-11-18T06:40:50;64.57;;;14.63;;
3333;SDS011;1679;50.392;8.008;2023-11-18T06:43:19;84.97;;;17.60;;
3333;SDS011;1679;50.392;8.008;2023-11-18T06:45:44;82.10;;;15.80;;
3333;SDS011;1679;50.392;8.008;2023-11-18T06:48:14;59.40;;;14.23;;
3333;SDS011;1679;50.392;8.008;2023-11-18T06:50:39;57.20;;;13.33;;
3333;SDS011;1679;50.392;8.008;2023-11-18T06:53:09;44.80;;;13.70;;
3333;SDS011;1679;50.392;8.008;2023-11-18T06:55:36;34.37;;;15.50;;
3333;SDS011;1679;50.392;8.008;2023-11-18T06:58:02;45.43;;;14.10;;
3333;SDS011;1679;50.392;8.008;2023-11-18T07:00:27;96.47;;;15.90;;
3333;SDS011;1679;50.392;8.008;2023-11-18T07:02:54;80.27;;;15.20;;
3333;SDS011;1679;50.392;8.008;2023-11-18T07:05:20;132.20;;;18.17;;
3333;SDS011;1679;50.392;8.008;2023-11-18T07:07:50;43.00;;;13.70;;
3333;SDS011;1679;50.392;8.008;2023-11-18T07:10:16;42.03;;;14.33;;
3333;SDS011;1679;50.392;8.008;2023-11-18T07:12:45;36.13;;;13.87;;
3333;SDS011;1679;50.392;8.008;2023-11-18T07:15:12;258.07;;;26.97;;
3333;SDS011;1679;50.392;8.008;2023-11-18T07:17:38;117.73;;;19.83;;
3333;SDS011;1679;50.392;8.008;2023-11-18T07:20:04;36.17;;;13.17;;
3333;SDS011;1679;50.392;8.008;2023-11-18T07:22:30;80.57;;;16.13;;
3333;SDS011;1679;50.392;8.008;2023-11-18T07:24:56;85.20;;;18.17;;
3333;SDS011;1679;50.392;8.008;2023-11-18T07:27:22;47.20;;;15.27;;
3333;SDS011;1679;50.392;8.008;2023-11-18T07:29:47;69.93;;;17.50;;
3333;SDS011;1679;50.392;8.008;2023-11-18T07:32:15;48.47;;;14.37;;
3333;SDS011;1679;50.392;8.008;2023-11-18T07:34:44;90.40;;;17.37;;
3333;SDS011;1679;50.392;8.008;2023-11-18T07:37:10;145.00;;;19.83;;
3333;SDS011;1679;50.392;8.008;2023-11-18T07:39:37;47.00;;;13.53;;
3333;SDS011;1679;50.392;8.008;2023-11-18T07:42:11;84.27;;;15.57;;
3333;SDS011;1679;50.392;8.008;2023-11-18T07:44:37;76.60;;;16.20;;
3333;SDS011;1679;50.392;8.008;2023-11-18T07:47:04;68.87;;;14.60;;
3333;SDS011;1679;50.392;8.008;2023-11-18T07:49:31;98.87;;;16.17;;
3333;SDS011;1679;50.392;8.008;2023-11-18T07:52:01;80.70;;;17.43;;
3333;SDS011;1679;50.392;8.008;2023-11-18T07:54:27;50.27;;;16.60;;
3333;SDS011;1679;50.392;8.008;2023-11-18T07:56:53;117.93;;;18.33;;
3333;SDS011;1679;50.392;8.008;2023-11-18T07:59:19;121.63;;;21.30;;
3333;SDS011;1679;50.392;8.008;2023-11-18T08:01:45;119.97;;;19.30;;
3333;SDS011;1679;50.392;8.008;2023-11-18T08:04:13;98.53;;;20.80;;
3333;SDS011;1679;50.392;8.008;2023-11-18T08:06:39;153.43;;;20.53;;
3333;SDS011;1679;50.392;8.008;2023-11-18T08:09:06;190.73;;;24.07;;
3333;SDS011;1679;50.392;8.008;2023-11-18T08:11:39;74.43;;;17.70;;
3333;SDS011;1679;50.392;8.008;2023-11-18T08:14:07;103.77;;;18.30;;
3333;SDS011;1679;50.392;8.008;2023-11-18T08:16:33;181.50;;;25.97;;
3333;SDS011;1679;50.392;8.008;2023-11-18T08:18:59;120.63;;;20.33;;
3333;SDS011;1679;50.392;8.008;2023-11-18T08:21:24;87.53;;;21.30;;
3333;SDS011;1679;50.392;8.008;2023-11-18T08:23:50;120.73;;;20.53;;
3333;SDS011;1679;50.392;8.008;2023-11-18T08:26:15;79.67;;;19.80;;
3333;SDS011;1679;50.392;8.008;2023-11-18T08:28:42;49.70;;;18.63;;
3333;SDS011;1679;50.392;8.008;2023-11-18T08:31:07;47.37;;;16.37;;
3333;SDS011;1679;50.392;8.008;2023-11-18T08:33:34;36.60;;;16.00;;
3333;SDS011;1679;50.392;8.008;2023-11-18T08:36:00;42.73;;;18.03;;
3333;SDS011;1679;50.392;8.008;2023-11-18T08:38:27;40.40;;;15.93;;
3333;SDS011;1679;50.392;8.008;2023-11-18T08:40:53;36.00;;;16.27;;
3333;SDS011;1679;50.392;8.008;2023-11-18T08:43:20;39.57;;;17.63;;
3333;SDS011;1679;50.392;8.008;2023-11-18T08:45:46;72.37;;;17.70;;
3333;SDS011;1679;50.392;8.008;2023-11-18T08:48:12;40.90;;;17.10;;
3333;SDS011;1679;50.392;8.008;2023-11-18T08:50:38;41.23;;;16.80;;
3333;SDS011;1679;50.392;8.008;2023-11-18T08:53:08;36.90;;;16.90;;
3333;SDS011;1679;50.392;8.008;2023-11-18T08:55:35;61.67;;;18.10;;
3333;SDS011;1679;50.392;8.008;2023-11-18T08:58:08;48.73;;;19.30;;
3333;SDS011;1679;50.392;8.008;2023-11-18T09:00:41;62.57;;;21.63;;
3333;SDS011;1679;50.392;8.008;2023-11-18T09:03:15;35.67;;;17.47;;
3333;SDS011;1679;50.392;8.008;2023-11-18T09:05:46;31.00;;;16.80;;
3333;SDS011;1679;50.392;8.008;2023-11-18T09:08:24;36.50;;;15.57;;
3333;SDS011;1679;50.392;8.008;2023-11-18T09:11:03;39.07;;;16.57;;
3333;SDS011;1679;50.392;8.008;2023-11-18T09:13:30;39.47;;;17.73;;
3333;SDS011;1679;50.392;8.008;2023-11-18T09:15:57;36.30;;;16.77;;
3333;SDS011;1679;50.392;8.008;2023-11-18T09:18:33;45.80;;;18.10;;
3333;SDS011;1679;50.392;8.008;2023-11-18T09:21:00;39.50;;;18.43;;
3333;SDS011;1679;50.392;8.008;2023-11-18T09:23:31;42.50;;;18.50;;
3333;SDS011;1679;50.392;8.008;2023-11-18T09:25:59;45.40;;;18.10;;
3333;SDS011;1679;50.392;8.008;2023-11-18T09:28:25;33.77;;;15.90;;
3333;SDS011;1679;50.392;8.008;2023-11-18T09:30:56;36.30;;;17.40;;
3333;SDS011;1679;50.392;8.008;2023-11-18T09:33:28;41.63;;;16.83;;
3333;SDS011;1679;50.392;8.008;2023-11-18T09:36:04;38.57;;;17.97;;
3333;SDS011;1679;50.392;8.008;2023-11-18T09:38:37;38.37;;;21.63;;
3333;SDS011;1679;50.392;8.008;2023-11-18T09:41:10;34.93;;;17.97;;
3333;SDS011;1679;50.392;8.008;2023-11-18T09:43:36;32.50;;;15.70;;
3333;SDS011;1679;50.392;8.008;2023-11-18T09:46:15;34.97;;;15.60;;
3333;SDS011;1679;50.392;8.008;2023-11-18T09:51:40;34.10;;;15.00;;
3333;SDS011;1679;50.392;8.008;2023-11-18T09:54:15;33.50;;;16.57;;
3333;SDS011;1679;50.392;8.008;2023-11-18T10:02:50;30.93;;;16.10;;
3333;SDS011;1679;50.392;8.008;2023-11-18T10:05:18;27.93;;;15.50;;
3333;SDS011;1679;50.392;8.008;2023-11-18T10:07:52;25.13;;;14.77;;
3333;SDS011;1679;50.392;8.008;2023-11-18T10:10:19;27.70;;;16.00;;
3333;SDS011;1679;50.392;8.008;2023-11-18T10:12:50;26.57;;;14.77;;
3333;SDS011;1679;50.392;8.008;2023-11-18T10:15:28;24.50;;;15.10;;
3333;SDS011;1679;50.392;8.008;2023-11-18T10:17:56;30.63;;;15.30;;
3333;SDS011;1679;50.392;8.008;2023-11-18T10:23:07;26.13;;;15.17;;
3333;SDS011;1679;50.392;8.008;2023-11-18T10:25:46;29.63;;;16.73;;
3333;SDS011;1679;50.392;8.008;2023-11-18T10:30:55;31.13;;;18.07;;
3333;SDS011;1679;50.392;8.008;2023-11-18T10:33:28;28.90;;;15.63;;
3333;SDS011;1679;50.392;8.008;2023-11-18T10:36:03;22.93;;;14.20;;
3333;SDS011;1679;50.392;8.008;2023-11-18T10:38:38;23.47;;;14.80;;
3333;SDS011;1679;50.392;8.008;2023-11-18T10:41:08;22.07;;;14.10;;
3333;SDS011;1679;50.392;8.008;2023-11-18T10:43:35;25.17;;;15.00;;
3333;SDS011;1679;50.392;8.008;2023-11-18T10:48:42;27.57;;;14.80;;
3333;SDS011;1679;50.392;8.008;2023-11-18T10:51:13;26.13;;;15.10;;
3333;SDS011;1679;50.392;8.008;2023-11-18T10:53:41;23.27;;;14.30;;
3333;SDS011;1679;50.392;8.008;2023-11-18T10:56:29;22.97;;;14.30;;
3333;SDS011;1679;50.392;8.008;2023-11-18T10:58:56;31.00;;;18.57;;
3333;SDS011;1679;50.392;8.008;2023-11-18T11:01:32;30.57;;;17.67;;
3333;SDS011;1679;50.392;8.008;2023-11-18T11:03:59;27.83;;;16.80;;
3333;SDS011;1679;50.392;8.008;2023-11-18T11:06:29;29.30;;;18.10;;
3333;SDS011;1679;50.392;8.008;2023-11-18T11:08:56;27.87;;;17.40;;
3333;SDS011;1679;50.392;8.008;2023-11-18T11:11:24;29.53;;;17.23;;
3333;SDS011;1679;50.392;8.008;2023-11-18T11:13:56;28.00;;;17.97;;
3333;SDS011;1679;50.392;8.008;2023-11-18T11:16:23;29.07;;;16.70;;
3333;SDS011;1679;50.392;8.008;2023-11-18T11:18:59;31.07;;;17.50;;
3333;SDS011;1679;50.392;8.008;2023-11-18T11:21:33;31.10;;;17.17;;
3333;SDS011;1679;50.392;8.008;2023-11-18T11:24:20;33.83;;;19.13;;
3333;SDS011;1679;50.392;8.008;2023-11-18T11:27:15;27.03;;;16.40;;
3333;SDS011;1679;50.392;8.008;2023-11-18T11:30:08;28.73;;;17.50;;
3333;SDS011;1679;50.392;8.008;2023-11-18T11:32:52;32.33;;;17.73;;
3333;SDS011;1679;50.392;8.008;2023-11-18T11:35:32;28.67;;;15.50;;
3333;SDS011;1679;50.392;8.008;2023-11-18T11:38:02;23.60;;;15.30;;
3333;SDS011;1679;50.392;8.008;2023-11-18T11:40:35;25.30;;;16.17;;
3333;SDS011;1679;50.392;8.008;2023-11-18T11:43:03;23.43;;;15.80;;
3333;SDS011;1679;50.392;8.008;2023-11-18T11:45:34;26.10;;;16.53;;
3333;SDS011;1679;50.392;8.008;2023-11-18T11:48:00;41.27;;;25.07;;
3333;SDS011;1679;50.392;8.008;2023-11-18T11:50:55;48.00;;;20.70;;
3333;SDS011;1679;50.392;8.008;2023-11-18T11:53:29;30.93;;;18.73;;
3333;SDS011;1679;50.392;8.008;2023-11-18T11:56:01;28.23;;;17.77;;
3333;SDS011;1679;50.392;8.008;2023-11-18T11:58:38;31.20;;;18.50;;
3333;SDS011;1679;50.392;8.008;2023-11-18T12:01:24;34.40;;;23.50;;
3333;SDS011;1679;50.392;8.008;2023-11-18T12:03:58;35.67;;;22.07;;
3333;SDS011;1679;50.392;8.008;2023-11-18T12:06:34;33.27;;;21.00;;
3333;SDS011;1679;50.392;8.008;2023-11-18T12:09:06;28.93;;;18.93;;
3333;SDS011;1679;50.392;8.008;2023-11-18T12:11:37;30.40;;;19.03;;
3333;SDS011;1679;50.392;8.008;2023-11-18T12:16:57;29.50;;;19.30;;
3333;SDS011;1679;50.392;8.008;2023-11-18T12:19:39;31.73;;;19.23;;
3333;SDS011;1679;50.392;8.008;2023-11-18T12:22:19;31.57;;;18.50;;
3333;SDS011;1679;50.392;8.008;2023-11-18T12:27:40;27.00;;;17.50;;
3333;SDS011;1679;50.392;8.008;2023-11-18T12:35:29;29.83;;;19.03;;
3333;SDS011;1679;50.392;8.008;2023-11-18T12:38:04;29.40;;;19.47;;
3333;SDS011;1679;50.392;8.008;2023-11-18T12:41:00;31.07;;;19.53;;
3333;SDS011;1679;50.392;8.008;2023-11-18T12:46:32;36.80;;;20.50;;
3333;SDS011;1679;50.392;8.008;2023-11-18T12:49:15;27.80;;;18.70;;
3333;SDS011;1679;50.392;8.008;2023-11-18T12:51:42;29.30;;;17.73;;
3333;SDS011;1679;50.392;8.008;2023-11-18T12:54:13;26.67;;;17.17;;
3333;SDS011;1679;50.392;8.008;2023-11-18T12:56:40;29.50;;;17.57;;
3333;SDS011;1679;50.392;8.008;2023-11-18T12:59:10;27.23;;;17.30;;
3333;SDS011;1679;50.392;8.008;2023-11-18T13:01:38;28.87;;;16.67;;
3333;SDS011;1679;50.392;8.008;2023-11-18T13:04:12;29.13;;;16.50;;
3333;SDS011;1679;50.392;8.008;2023-11-18T13:06:39;24.60;;;16.40;;
3333;SDS011;1679;50.392;8.008;2023-11-18T13:09:06;32.00;;;17.80;;
3333;SDS011;1679;50.392;8.008;2023-11-18T13:11:35;27.83;;;16.33;;
3333;SDS011;1679;50.392;8.008;2023-11-18T13:14:01;22.40;;;15.57;;
3333;SDS011;1679;50.392;8.008;2023-11-18T13:16:28;27.83;;;16.00;;
3333;SDS011;1679;50.392;8.008;2023-11-18T13:18:53;25.43;;;16.70;;
3333;SDS011;1679;50.392;8.008;2023-11-18T13:21:21;23.83;;;15.93;;
3333;SDS011;1679;50.392;8.008;2023-11-18T13:23:52;22.00;;;15.50;;
3333;SDS011;1679;50.392;8.008;2023-11-18T13:26:18;25.50;;;15.07;;
3333;SDS011;1679;50.392;8.008;2023-11-18T13:28:46;26.63;;;16.27;;
3333;SDS011;1679;50.392;8.008;2023-11-18T13:31:14;35.87;;;19.00;;
3333;SDS011;1679;50.392;8.008;2023-11-18T13:33:43;23.47;;;16.27;;
3333;SDS011;1679;50.392;8.008;2023-11-18T13:36:09;22.53;;;15.47;;
3333;SDS011;1679;50.392;8.008;2023-11-18T13:38:38;21.80;;;14.20;;
3333;SDS011;1679;50.392;8.008;2023-11-18T13:41:04;21.30;;;15.57;;
3333;SDS011;1679;50.392;8.008;2023-11-18T13:43:42;23.47;;;14.40;;
3333;SDS011;1679;50.392;8.008;2023-11-18T13:46:11;20.10;;;13.83;;
3333;SDS011;1679;50.392;8.008;2023-11-18T13:48:47;26.00;;;14.23;;
3333;SDS011;1679;50.392;8.008;2023-11-18T13:51:14;18.07;;;13.17;;
3333;SDS011;1679;50.392;8.008;2023-11-18T13:53:41;19.33;;;13.70;;
3333;SDS011;1679;50.392;8.008;2023-11-18T13:56:11;15.63;;;12.40;;
3333;SDS011;1679;50.392;8.008;2023-11-18T13:58:38;23.13;;;13.30;;
3333;SDS011;1679;50.392;8.008;2023-11-18T14:01:05;17.60;;;12.60;;
3333;SDS011;1679;50.392;8.008;2023-11-18T14:03:35;17.73;;;12.53;;
3333;SDS011;1679;50.392;8.008;2023-11-18T14:06:07;22.93;;;11.37;;
3333;SDS011;1679;50.392;8.008;2023-11-18T14:08:42;15.43;;;11.23;;
3333;SDS011;1679;50.392;8.008;2023-11-18T14:11:08;19.60;;;14.77;;
3333;SDS011;1679;50.392;8.008;2023-11-18T14:13:35;20.97;;;12.80;;
3333;SDS011;1679;50.392;8.008;2023-11-18T14:16:02;16.00;;;10.50;;
3333;SDS011;1679;50.392;8.008;2023-11-18T14:18:29;16.27;;;11.47;;
3333;SDS011;1679;50.392;8.008;2023-11-18T14:20:54;21.43;;;17.93;;
3333;SDS011;1679;50.392;8.008;2023-11-18T14:23:20;27.87;;;19.87;;
3333;SDS011;1679;50.392;8.008;2023-11-18T14:25:47;17.53;;;12.27;;
3333;SDS011;1679;50.392;8.008;2023-11-18T14:28:13;40.60;;;27.90;;
3333;SDS011;1679;50.392;8.008;2023-11-18T14:30:39;17.27;;;12.10;;
3333;SDS011;1679;50.392;8.008;2023-11-18T14:33:05;19.23;;;13.70;;
3333;SDS011;1679;50.392;8.008;2023-11-18T14:35:32;21.97;;;14.70;;
3333;SDS011;1679;50.392;8.008;2023-11-18T14:37:58;18.70;;;14.70;;
3333;SDS011;1679;50.392;8.008;2023-11-18T14:40:26;18.00;;;14.00;;
3333;SDS011;1679;50.392;8.008;2023-11-18T14:42:52;21.43;;;11.90;;
3333;SDS011;1679;50.392;8.008;2023-11-18T14:45:18;19.13;;;13.87;;
3333;SDS011;1679;50.392;8.008;2023-11-18T14:47:44;18.33;;;12.90;;
3333;SDS011;1679;50.392;8.008;2023-11-18T14:50:11;19.17;;;12.77;;
3333;SDS011;1679;50.392;8.008;2023-11-18T14:52:42;19.70;;;12.93;;
3333;SDS011;1679;50.392;8.008;2023-11-18T14:55:16;22.57;;;13.70;;
3333;SDS011;1679;50.392;8.008;2023-11-18T14:57:42;15.83;;;12.27;;
3333;SDS011;1679;50.392;8.008;2023-11-18T15:00:09;18.80;;;14.57;;
3333;SDS011;1679;50.392;8.008;2023-11-18T15:02:46;19.50;;;12.90;;
3333;SDS011;1679;50.392;8.008;2023-11-18T15:05:15;18.97;;;11.90;;
3333;SDS011;1679;50.392;8.008;2023-11-18T15:07:45;19.13;;;13.37;;
3333;SDS011;1679;50.392;8.008;2023-11-18T15:10:14;18.50;;;14.70;;
3333;SDS011;1679;50.392;8.008;2023-11-18T15:12:44;23.17;;;15.00;;
3333;SDS011;1679;50.392;8.008;2023-11-18T15:15:13;19.13;;;14.00;;
3333;SDS011;1679;50.392;8.008;2023-11-18T15:17:44;25.53;;;16.33;;
3333;SDS011;1679;50.392;8.008;2023-11-18T15:20:11;27.30;;;16.53;;
3333;SDS011;1679;50.392;8.008;2023-11-18T15:22:37;22.13;;;14.87;;
3333;SDS011;1679;50.392;8.008;2023-11-18T15:25:03;25.37;;;16.80;;
3333;SDS011;1679;50.392;8.008;2023-11-18T15:27:34;22.73;;;15.13;;
3333;SDS011;1679;50.392;8.008;2023-11-18T15:30:00;26.03;;;15.50;;
3333;SDS011;1679;50.392;8.008;2023-11-18T15:32:27;24.90;;;15.73;;